createdAt,value
2022-08-07T00:01:43.714Z,99657.69
2022-08-07T00:04:06.230Z,99667.28
2022-08-07T00:06:36.336Z,99655.44
2022-08-07T00:09:16.267Z,99663.97
2022-08-07T00:11:54.104Z,99668.38
2022-08-07T00:14:25.362Z,99678.56
2022-08-07T00:16:57.595Z,99670.84
2022-08-07T00:19:26.176Z,99671.34
2022-08-07T00:22:10.999Z,99673.56
2022-08-07T00:24:38.824Z,99669.66
2022-08-07T00:27:07.262Z,99676.25
2022-08-07T00:29:37.030Z,99677.38
2022-08-07T00:32:06.965Z,99681.72
2022-08-07T00:34:35.630Z,99678.94
2022-08-07T00:37:02.911Z,99684.19
2022-08-07T00:39:32.395Z,99680.03
2022-08-07T00:42:01.753Z,99689.38
2022-08-07T00:44:29.587Z,99682.72
2022-08-07T00:46:56.344Z,99678.84
2022-08-07T00:49:24.843Z,99681.56
2022-08-07T00:52:10.935Z,99684.28
2022-08-07T00:54:40.619Z,99685.91
2022-08-07T00:57:09.189Z,99680.41
2022-08-07T00:59:37.664Z,99680.38
2022-08-07T01:02:09.044Z,99684.22
2022-08-07T01:04:58.211Z,99694.09
2022-08-07T01:07:29.264Z,99702.38
2022-08-07T01:10:06.322Z,99707.38
2022-08-07T01:12:53.389Z,99717.75
2022-08-07T01:15:23.252Z,99707.16
2022-08-07T01:18:17.693Z,99725.31
2022-08-07T01:20:57.351Z,99726.38
2022-08-07T01:23:36.719Z,99725.84
2022-08-07T01:26:12.368Z,99733.03
2022-08-07T01:28:48.498Z,99729.19
2022-08-07T01:31:19.000Z,99728.03
2022-08-07T01:33:55.007Z,99730.78
2022-08-07T01:36:33.179Z,99734.78
2022-08-07T01:39:10.136Z,99734.94
2022-08-07T01:41:40.836Z,99735.47
2022-08-07T01:44:28.032Z,99731.47
2022-08-07T01:46:57.788Z,99735.03
2022-08-07T01:49:31.961Z,99739.09
2022-08-07T01:52:04.921Z,99736.66
2022-08-07T01:54:44.738Z,99743.41
2022-08-07T01:57:25.905Z,99740.72
2022-08-07T01:59:57.747Z,99745.88
2022-08-07T02:03:11.640Z,99762.75
2022-08-07T02:06:01.078Z,99770.38
2022-08-07T02:08:45.252Z,99778.50
2022-08-07T02:11:31.059Z,99785.69
2022-08-07T02:14:08.570Z,99777.59
2022-08-07T02:16:40.114Z,99770.81
2022-08-07T02:20:05.280Z,99770.91
2022-08-07T02:22:02.886Z,99777.13
2022-08-07T02:24:38.380Z,99772.25
2022-08-07T02:27:14.256Z,99781.81
2022-08-07T02:29:53.921Z,99784.19
2022-08-07T02:32:29.812Z,99786.09
2022-08-07T02:35:01.613Z,99779.75
2022-08-07T02:37:37.927Z,99776.66
2022-08-07T02:40:34.874Z,99770.78
2022-08-07T02:43:07.783Z,99783.91
2022-08-07T02:46:00.764Z,99784.31
2022-08-07T02:48:34.480Z,99785.50
2022-08-07T02:51:28.866Z,99798.72
2022-08-07T02:53:59.296Z,99795.88
2022-08-07T02:56:32.080Z,99797.09
2022-08-07T02:59:02.281Z,99800.91
2022-08-07T03:01:35.283Z,99805.06
2022-08-07T03:04:07.083Z,99805.91
2022-08-07T03:06:35.408Z,99796.34
2022-08-07T03:09:05.382Z,99785.84
2022-08-07T03:11:38.939Z,99799.00
2022-08-07T03:14:07.090Z,99798.72
2022-08-07T03:16:35.713Z,99805.50
2022-08-07T03:19:02.879Z,99807.03
2022-08-07T03:21:33.000Z,99801.81
2022-08-07T03:24:20.592Z,99800.84
2022-08-07T03:26:57.978Z,99788.38
2022-08-07T03:29:33.680Z,99793.09
2022-08-07T03:32:13.230Z,99792.63
2022-08-07T03:34:47.464Z,99800.63
2022-08-07T03:37:32.776Z,99808.69
2022-08-07T03:40:15.571Z,99811.34
2022-08-07T03:42:43.762Z,99811.38
2022-08-07T03:45:11.467Z,99814.59
2022-08-07T03:47:45.010Z,99812.94
2022-08-07T03:50:23.444Z,99818.66
2022-08-07T03:52:52.973Z,99821.16
2022-08-07T03:55:19.868Z,99827.06
2022-08-07T03:59:06.776Z,99831.72
2022-08-07T04:00:37.574Z,99838.06
2022-08-07T04:03:13.306Z,99839.44
2022-08-07T04:05:42.260Z,99847.25
2022-08-07T04:08:12.577Z,99847.78
2022-08-07T04:10:54.472Z,99851.00
2022-08-07T04:14:10.859Z,99849.72
2022-08-07T04:16:30.049Z,99861.72
2022-08-07T04:19:01.745Z,99866.75
2022-08-07T04:21:32.018Z,99872.69
2022-08-07T04:24:07.908Z,99871.22
2022-08-07T04:26:37.065Z,99870.81
2022-08-07T04:29:04.000Z,99879.53
2022-08-07T04:31:38.852Z,99878.59
2022-08-07T04:34:24.251Z,99873.38
2022-08-07T04:36:54.488Z,99873.22
2022-08-07T04:39:25.881Z,99883.47
2022-08-07T04:41:52.713Z,99883.59
2022-08-07T04:44:20.885Z,99879.56
2022-08-07T04:47:08.213Z,99874.47
2022-08-07T04:49:41.529Z,99889.69
2022-08-07T04:52:35.859Z,99882.97
2022-08-07T04:58:15.616Z,99882.38
2022-08-07T04:59:15.881Z,99897.38
2022-08-07T05:01:51.325Z,99897.09
2022-08-07T05:04:43.960Z,99889.78
2022-08-07T05:07:20.975Z,99901.69
2022-08-07T05:10:11.735Z,99908.13
2022-08-07T05:12:46.172Z,99909.69
2022-08-07T05:15:27.048Z,99909.03
2022-08-07T05:18:09.264Z,99906.88
2022-08-07T05:20:45.082Z,99902.63
2022-08-07T05:23:16.551Z,99906.91
2022-08-07T05:26:13.377Z,99912.66
2022-08-07T05:28:35.056Z,99916.81
2022-08-07T05:31:03.643Z,99907.63
2022-08-07T05:33:35.505Z,99915.88
2022-08-07T05:36:07.103Z,99921.63
2022-08-07T05:38:59.873Z,99920.19
2022-08-07T05:41:29.533Z,99926.00
2022-08-07T05:44:29.671Z,99927.00
2022-08-07T05:46:57.576Z,99936.19
2022-08-07T05:49:27.802Z,99930.75
2022-08-07T05:52:11.704Z,99927.81
2022-08-07T05:54:53.575Z,99941.19
2022-08-07T05:57:30.190Z,99946.31
2022-08-07T06:00:01.433Z,99951.47
2022-08-07T06:02:31.274Z,99958.06
2022-08-07T06:05:03.343Z,99955.41
2022-08-07T06:08:14.321Z,99952.28
2022-08-07T06:10:18.505Z,99956.03
2022-08-07T06:12:46.871Z,99953.75
2022-08-07T06:15:16.417Z,99956.63
2022-08-07T06:17:53.374Z,99972.13
2022-08-07T06:20:31.804Z,99972.63
2022-08-07T06:23:02.135Z,99970.84
2022-08-07T06:25:54.712Z,99978.56
2022-08-07T06:28:27.207Z,99970.22
2022-08-07T06:30:55.774Z,99974.66
2022-08-07T06:33:24.350Z,99978.91
2022-08-07T06:36:06.414Z,99973.53
2022-08-07T06:38:38.766Z,99987.31
2022-08-07T06:41:58.794Z,99985.44
2022-08-07T06:44:17.367Z,99981.22
2022-08-07T06:46:53.591Z,99976.44
2022-08-07T06:49:33.923Z,99986.75
2022-08-07T06:52:31.575Z,99974.03
2022-08-07T06:55:32.249Z,99974.19
2022-08-07T06:57:59.223Z,99973.69
2022-08-07T07:00:31.066Z,99988.50
2022-08-07T07:03:00.788Z,99982.75
2022-08-07T07:06:03.514Z,99982.69
2022-08-07T07:08:26.712Z,99986.69
2022-08-07T07:10:56.757Z,99976.19
2022-08-07T07:13:57.949Z,99984.97
2022-08-07T07:16:49.846Z,99988.81
2022-08-07T07:19:55.799Z,99983.00
2022-08-07T07:22:35.710Z,99987.59
2022-08-07T07:26:30.862Z,99989.13
2022-08-07T07:28:42.337Z,99988.72
2022-08-07T07:31:05.510Z,99985.66
2022-08-07T07:33:37.644Z,99997.50
2022-08-07T07:36:12.725Z,100000.41
2022-08-07T07:38:47.634Z,99994.06
2022-08-07T07:41:17.931Z,99994.97
2022-08-07T07:44:16.949Z,99988.06
2022-08-07T07:46:56.044Z,99993.06
2022-08-07T07:50:36.041Z,99989.66
2022-08-07T07:52:18.145Z,99991.78
2022-08-07T07:54:51.508Z,99986.84
2022-08-07T07:57:29.069Z,99993.00
2022-08-07T08:00:28.901Z,99985.56
2022-08-07T08:03:05.259Z,99994.16
2022-08-07T08:05:51.135Z,99996.19
2022-08-07T08:08:36.348Z,99986.34
2022-08-07T08:11:08.549Z,99998.84
2022-08-07T08:13:53.951Z,99994.66
2022-08-07T08:16:35.117Z,100005.22
2022-08-07T08:19:09.812Z,100000.06
2022-08-07T08:22:11.644Z,100009.81
2022-08-07T08:25:09.568Z,100016.28
2022-08-07T08:27:56.806Z,100013.25
2022-08-07T08:30:28.215Z,100023.03
2022-08-07T08:32:58.833Z,100011.78
2022-08-07T08:35:28.796Z,100009.38
2022-08-07T08:38:08.924Z,100013.69
2022-08-07T08:40:46.829Z,100020.16
2022-08-07T08:43:41.979Z,100017.56
2022-08-07T08:46:49.175Z,100012.53
2022-08-07T08:50:02.143Z,100023.00
2022-08-07T08:52:36.089Z,100007.91
2022-08-07T08:55:55.284Z,100027.28
2022-08-07T08:58:20.267Z,100023.19
2022-08-07T09:01:14.605Z,100019.63
2022-08-07T09:04:11.061Z,100016.25
2022-08-07T09:06:50.302Z,100026.00
2022-08-07T09:09:47.502Z,100019.97
2022-08-07T09:12:33.130Z,100021.41
2022-08-07T09:16:20.036Z,100021.00
2022-08-07T09:18:15.689Z,100015.63
2022-08-07T09:21:06.076Z,100020.16
2022-08-07T09:24:32.048Z,100016.19
2022-08-07T09:27:23.771Z,100016.72
2022-08-07T09:30:08.013Z,100006.28
2022-08-07T09:32:47.771Z,100010.78
2022-08-07T09:36:01.148Z,100011.88
2022-08-07T09:38:50.261Z,100014.66
2022-08-07T09:41:59.045Z,100003.13
2022-08-07T09:47:20.037Z,100000.44
2022-08-07T09:48:15.445Z,100006.00
2022-08-07T09:51:05.450Z,99998.28
2022-08-07T09:54:02.359Z,99990.66
2022-08-07T09:56:37.296Z,99992.66
2022-08-07T09:59:28.135Z,99980.22
2022-08-07T10:02:16.225Z,99985.09
2022-08-07T10:04:46.191Z,99986.50
2022-08-07T10:07:26.212Z,99996.00
2022-08-07T10:10:23.847Z,99974.69
2022-08-07T10:13:15.751Z,99978.13
2022-08-07T10:16:14.721Z,99976.03
2022-08-07T10:19:01.228Z,99969.88
2022-08-07T10:22:15.583Z,99983.69
2022-08-07T10:24:58.063Z,99971.72
2022-08-07T10:27:46.252Z,99971.38
2022-08-07T10:30:20.125Z,99966.72
2022-08-07T10:33:14.924Z,99968.63
2022-08-07T10:36:14.596Z,99964.59
2022-08-07T10:38:51.226Z,99965.44
2022-08-07T10:41:53.169Z,99954.78
2022-08-07T10:44:37.625Z,99966.13
2022-08-07T10:47:53.848Z,99963.91
2022-08-07T10:50:44.846Z,99947.91
2022-08-07T10:53:44.326Z,99947.38
2022-08-07T10:56:31.789Z,99949.66
2022-08-07T10:59:21.689Z,99952.59
2022-08-07T11:01:51.344Z,99953.91
2022-08-07T11:05:07.317Z,99942.94
2022-08-07T11:08:00.284Z,99927.59
2022-08-07T11:10:34.863Z,99937.97
2022-08-07T11:14:41.994Z,99924.91
2022-08-07T11:34:29.320Z,99905.50
2022-08-07T11:37:03.097Z,99905.50
2022-08-07T11:40:00.462Z,99910.72
2022-08-07T11:42:43.889Z,99903.34
2022-08-07T11:45:49.956Z,99901.81
2022-08-07T11:48:53.820Z,99902.16
2022-08-07T11:51:41.717Z,99893.22
2022-08-07T11:54:26.741Z,99900.47
2022-08-07T11:57:12.712Z,99895.34
2022-08-07T12:00:11.639Z,99903.09
2022-08-07T12:02:57.923Z,99897.28
2022-08-07T12:05:48.936Z,99894.41
2022-08-07T12:08:35.028Z,99893.34
2022-08-07T12:12:09.414Z,99889.41
2022-08-07T12:14:37.102Z,99885.09
2022-08-07T12:17:20.486Z,99891.41
2022-08-07T12:20:03.914Z,99890.38
2022-08-07T12:22:56.170Z,99891.66
2022-08-07T12:26:22.450Z,99892.31
2022-08-07T12:28:56.354Z,99888.78
2022-08-07T12:31:52.329Z,99885.25
2022-08-07T12:34:21.452Z,99874.31
2022-08-07T12:36:51.240Z,99875.41
2022-08-07T12:39:43.051Z,99867.91
2022-08-07T12:42:13.125Z,99869.72
2022-08-07T12:44:45.423Z,99872.03
2022-08-07T12:47:31.091Z,99876.59
2022-08-07T12:50:33.785Z,99869.47
2022-08-07T12:53:22.426Z,99862.31
2022-08-07T12:56:02.990Z,99866.94
2022-08-07T12:58:37.571Z,99856.09
2022-08-07T13:01:08.946Z,99859.03
2022-08-07T13:04:02.364Z,99852.16
2022-08-07T13:07:01.347Z,99848.63
2022-08-07T13:10:36.734Z,99848.72
2022-08-07T13:12:39.544Z,99843.72
2022-08-07T13:15:39.179Z,99843.50
2022-08-07T13:18:34.237Z,99844.13
2022-08-07T13:21:09.655Z,99839.19
2022-08-07T13:24:01.872Z,99828.00
2022-08-07T13:26:33.899Z,99824.97
2022-08-07T13:29:24.512Z,99831.22
2022-08-07T13:32:23.689Z,99831.41
2022-08-07T13:35:00.424Z,99827.53
2022-08-07T13:37:59.144Z,99831.03
2022-08-07T13:40:35.322Z,99821.78
2022-08-07T13:43:13.254Z,99810.56
2022-08-07T13:46:11.254Z,99810.88
2022-08-07T13:48:35.037Z,99810.72
2022-08-07T13:51:27.139Z,99811.53
2022-08-07T13:54:00.874Z,99803.16
2022-08-07T13:56:35.040Z,99807.88
2022-08-07T13:59:12.724Z,99797.53
2022-08-07T14:02:03.606Z,99804.88
2022-08-07T14:04:36.075Z,99806.22
2022-08-07T14:07:09.516Z,99802.84
2022-08-07T14:10:12.007Z,99804.22
2022-08-07T14:12:31.137Z,99797.16
2022-08-07T14:15:08.871Z,99791.66
2022-08-07T14:18:24.513Z,99801.03
2022-08-07T14:20:40.965Z,99807.75
2022-08-07T14:23:59.347Z,99795.06
2022-08-07T14:26:28.326Z,99791.09
2022-08-07T14:29:04.438Z,99794.88
2022-08-07T14:34:29.524Z,99783.22
2022-08-07T14:37:02.000Z,99780.88
2022-08-07T14:40:17.707Z,99786.50
2022-08-07T14:42:31.229Z,99775.75
2022-08-07T14:45:21.457Z,99777.34
2022-08-07T14:47:51.231Z,99772.25
2022-08-07T14:50:22.630Z,99759.69
2022-08-07T14:52:52.985Z,99778.09
2022-08-07T14:55:20.594Z,99764.50
2022-08-07T15:00:41.053Z,99755.38
2022-08-07T15:06:04.298Z,99756.00
2022-08-07T15:11:50.790Z,99750.25
2022-08-07T15:17:16.690Z,99753.66
2022-08-07T15:20:30.959Z,99750.03
2022-08-07T15:22:53.744Z,99745.72
2022-08-07T15:25:36.952Z,99738.91
2022-08-07T15:28:34.764Z,99737.00
2022-08-07T15:31:04.738Z,99736.56
2022-08-07T15:33:36.355Z,99744.06
2022-08-07T15:36:07.904Z,99734.09
2022-08-07T15:38:51.315Z,99731.34
2022-08-07T15:42:45.155Z,99736.38
2022-08-07T15:44:18.900Z,99731.09
2022-08-07T15:46:53.131Z,99729.34
2022-08-07T15:50:04.363Z,99725.97
2022-08-07T15:52:17.241Z,99723.72
2022-08-07T15:54:49.604Z,99728.66
2022-08-07T15:57:28.282Z,99718.75
2022-08-07T16:00:08.256Z,99713.81
2022-08-07T16:02:47.137Z,99724.34
2022-08-07T16:05:20.067Z,99727.81
2022-08-07T16:08:32.778Z,99718.59
2022-08-07T16:10:48.495Z,99711.03
2022-08-07T16:13:58.855Z,99713.84
2022-08-07T16:16:48.541Z,99714.31
2022-08-07T16:19:59.072Z,99717.25
2022-08-07T16:22:33.683Z,99711.00
2022-08-07T16:25:52.326Z,99709.81
2022-08-07T16:30:06.460Z,99720.19
2022-08-07T16:31:25.208Z,99708.03
2022-08-07T16:34:49.976Z,99720.00
2022-08-07T16:38:06.046Z,99717.50
2022-08-07T16:40:28.789Z,99728.38
2022-08-07T16:43:15.642Z,99720.00
2022-08-07T16:46:33.209Z,99720.28
2022-08-07T16:50:27.053Z,99725.13
2022-08-07T16:52:51.850Z,99726.06
2022-08-07T16:55:47.417Z,99728.16
2022-08-07T16:58:33.711Z,99721.50
2022-08-07T17:01:34.261Z,99727.78
2022-08-07T17:04:12.523Z,99729.25
2022-08-07T17:07:09.182Z,99734.59
2022-08-07T17:10:06.649Z,99729.84
2022-08-07T17:12:53.094Z,99736.34
2022-08-07T17:15:28.869Z,99741.38
2022-08-07T17:18:26.205Z,99743.94
2022-08-07T17:20:53.909Z,99739.78
2022-08-07T17:23:39.888Z,99742.34
2022-08-07T17:26:23.466Z,99738.72
2022-08-07T17:30:14.322Z,99737.31
2022-08-07T17:32:31.260Z,99735.25
2022-08-07T17:35:51.776Z,99735.84
2022-08-07T17:38:39.696Z,99732.03
2022-08-07T17:42:04.655Z,99728.81
2022-08-07T17:44:41.470Z,99735.66
2022-08-07T17:47:16.606Z,99740.47
2022-08-07T17:50:03.272Z,99738.59
2022-08-07T17:52:39.898Z,99733.69
2022-08-07T17:56:01.195Z,99734.84
2022-08-07T17:58:30.750Z,99739.91
2022-08-07T18:01:02.872Z,99738.00
2022-08-07T18:04:07.384Z,99746.09
2022-08-07T18:07:19.608Z,99739.47
2022-08-07T18:10:06.725Z,99738.34
2022-08-07T18:13:06.784Z,99741.44
2022-08-07T18:15:54.896Z,99750.63
2022-08-07T18:18:45.479Z,99746.50
2022-08-07T18:21:57.874Z,99751.81
2022-08-07T18:24:37.311Z,99763.47
2022-08-07T18:27:39.317Z,99762.94
2022-08-07T18:30:32.583Z,99762.69
2022-08-07T18:33:12.015Z,99757.41
2022-08-07T18:35:57.541Z,99754.94
2022-08-07T18:38:58.809Z,99761.88
2022-08-07T18:42:05.224Z,99763.78
2022-08-07T18:45:43.376Z,99762.72
2022-08-07T18:47:45.356Z,99756.91
2022-08-07T18:50:43.905Z,99760.78
2022-08-07T18:53:22.023Z,99765.25
2022-08-07T18:56:34.967Z,99773.03
2022-08-07T18:59:47.186Z,99781.31
2022-08-07T19:02:58.913Z,99771.34
2022-08-07T19:06:02.596Z,99774.13
2022-08-07T19:08:55.734Z,99773.53
2022-08-07T19:12:04.239Z,99781.84
2022-08-07T19:14:52.959Z,99776.31
2022-08-07T19:17:58.854Z,99783.50
2022-08-07T19:20:28.999Z,99774.09
2022-08-07T19:23:18.924Z,99784.63
2022-08-07T19:26:25.249Z,99770.75
2022-08-07T19:30:54.518Z,99779.06
2022-08-07T19:32:01.172Z,99786.22
2022-08-07T19:34:34.001Z,99789.53
2022-08-07T19:37:10.177Z,99785.06
2022-08-07T19:39:57.350Z,99786.69
2022-08-07T19:42:31.138Z,99792.22
2022-08-07T19:45:09.477Z,99794.44
2022-08-07T19:47:42.127Z,99797.16
2022-08-07T19:50:44.414Z,99787.50
2022-08-07T19:52:58.924Z,99801.28
2022-08-07T19:55:56.525Z,99806.78
2022-08-07T19:58:18.519Z,99813.66
2022-08-07T20:00:57.203Z,99812.84
2022-08-07T20:03:34.468Z,99819.75
2022-08-07T20:06:06.360Z,99813.38
2022-08-07T20:08:50.709Z,99818.59
2022-08-07T20:11:23.273Z,99829.09
2022-08-07T20:14:13.759Z,99824.09
2022-08-07T20:16:48.249Z,99820.78
2022-08-07T20:19:23.925Z,99826.22
2022-08-07T20:21:57.034Z,99827.28
2022-08-07T20:24:32.647Z,99822.03
2022-08-07T20:27:02.437Z,99825.59
2022-08-07T20:29:48.401Z,99826.13
2022-08-07T20:32:40.388Z,99830.00
2022-08-07T20:35:26.243Z,99830.00
2022-08-07T20:37:58.756Z,99831.06
2022-08-07T20:40:33.453Z,99837.63
2022-08-07T20:43:03.190Z,99843.69
2022-08-07T20:46:26.477Z,99842.81
2022-08-07T20:48:30.088Z,99850.81
2022-08-07T20:51:03.076Z,99850.25
2022-08-07T20:54:02.159Z,99841.63
2022-08-07T20:56:29.394Z,99841.34
2022-08-07T20:58:58.833Z,99839.38
2022-08-07T21:01:36.613Z,99841.31
2022-08-07T21:04:22.162Z,99845.41
2022-08-07T21:06:53.383Z,99845.09
2022-08-07T21:09:24.361Z,99843.72
2022-08-07T21:11:57.233Z,99846.19
2022-08-07T21:14:32.038Z,99847.25
2022-08-07T21:18:02.256Z,99849.72
2022-08-07T21:20:05.129Z,99851.66
2022-08-07T21:22:39.511Z,99853.25
2022-08-07T21:25:29.117Z,99852.69
2022-08-07T21:28:16.792Z,99855.38
2022-08-07T21:32:10.823Z,99850.38
2022-08-07T21:34:46.025Z,99858.63
2022-08-07T21:37:59.640Z,99850.31
2022-08-07T21:40:57.480Z,99844.16
2022-08-07T21:43:47.338Z,99844.66
2022-08-07T21:46:48.111Z,99843.03
2022-08-07T21:50:01.890Z,99840.69
2022-08-07T21:52:57.927Z,99843.41
2022-08-07T21:55:30.892Z,99840.91
2022-08-07T21:58:12.173Z,99844.44
2022-08-07T22:00:54.202Z,99843.28
2022-08-07T22:03:36.014Z,99849.78
2022-08-07T22:06:30.259Z,99845.91
2022-08-07T22:09:01.446Z,99846.41
2022-08-07T22:11:53.120Z,99848.00
2022-08-07T22:14:36.607Z,99850.19
2022-08-07T22:17:05.900Z,99850.19
2022-08-07T22:19:41.408Z,99852.91
2022-08-07T22:22:20.811Z,99858.28
2022-08-07T22:25:07.548Z,99852.59
2022-08-07T22:28:07.372Z,99855.31
2022-08-07T22:30:57.355Z,99859.06
2022-08-07T22:33:56.408Z,99857.91
2022-08-07T22:36:52.600Z,99850.16
2022-08-07T22:39:53.003Z,99862.78
2022-08-07T22:42:25.577Z,99858.34
2022-08-07T22:46:04.326Z,99862.19
2022-08-07T22:48:31.480Z,99857.69
2022-08-07T22:51:24.374Z,99857.94
2022-08-07T22:54:12.043Z,99855.19
2022-08-07T22:56:42.630Z,99857.69
2022-08-07T22:59:34.655Z,99859.84
2022-08-07T23:02:18.300Z,99851.50
2022-08-07T23:06:08.709Z,99849.25
2022-08-07T23:08:46.269Z,99847.44
2022-08-07T23:11:41.186Z,99844.19
2022-08-07T23:14:47.550Z,99849.13
2022-08-07T23:17:26.857Z,99852.09
2022-08-07T23:20:51.560Z,99852.75
2022-08-07T23:24:06.215Z,99853.59
2022-08-07T23:26:28.356Z,99856.13
2022-08-07T23:30:36.345Z,99855.13
2022-08-07T23:34:22.816Z,99851.28
2022-08-07T23:36:10.622Z,99856.59
2022-08-07T23:39:16.035Z,99862.34
2022-08-07T23:42:15.610Z,99857.84
2022-08-07T23:45:07.317Z,99860.53
2022-08-07T23:48:20.655Z,99857.53
2022-08-07T23:52:58.942Z,99854.00
2022-08-07T23:54:44.057Z,99861.16
2022-08-07T23:57:35.396Z,99849.91
